sensor_id;sensor_type;location;lat;lon;timestamp;P1;durP1;ratioP1;P2;durP2;ratioP2
74457;SDS011;62896;51.032;3.712;2023-01-08T00:00:31;7.3;;;2.3;;
74457;SDS011;62896;51.032;3.712;2023-01-08T00:03:51;4.7;;;2.6;;
74457;SDS011;62896;51.032;3.712;2023-01-08T00:07:11;4.7;;;2.6;;
74457;SDS011;62896;51.032;3.712;2023-01-08T00:10:31;4.7;;;2.6;;
74457;SDS011;62896;51.032;3.712;2023-01-08T00:13:51;4.7;;;2.6;;
74457;SDS011;62896;51.032;3.712;2023-01-08T00:17:11;4.7;;;2.6;;
74457;SDS011;62896;51.032;3.712;2023-01-08T00:20:31;4.7;;;2.6;;
74457;SDS011;62896;51.032;3.712;2023-01-08T00:23:51;4.7;;;2.6;;
74457;SDS011;62896;51.032;3.712;2023-01-08T00:27:11;5.1;;;1.9;;
74457;SDS011;62896;51.032;3.712;2023-01-08T00:30:31;5.1;;;1.9;;
74457;SDS011;62896;51.032;3.712;2023-01-08T00:33:51;5.1;;;1.9;;
74457;SDS011;62896;51.032;3.712;2023-01-08T00:37:11;5.1;;;1.9;;
74457;SDS011;62896;51.032;3.712;2023-01-08T00:40:31;5.1;;;1.9;;
74457;SDS011;62896;51.032;3.712;2023-01-08T00:43:51;5.1;;;1.9;;
74457;SDS011;62896;51.032;3.712;2023-01-08T00:47:11;5.1;;;1.9;;
74457;SDS011;62896;51.032;3.712;2023-01-08T00:50:31;5.1;;;1.9;;
74457;SDS011;62896;51.032;3.712;2023-01-08T00:53:52;6.1;;;1.4;;
74457;SDS011;62896;51.032;3.712;2023-01-08T00:57:11;6.1;;;1.4;;
74457;SDS011;62896;51.032;3.712;2023-01-08T01:00:31;6.1;;;1.4;;
74457;SDS011;62896;51.032;3.712;2023-01-08T01:03:51;6.1;;;1.4;;
74457;SDS011;62896;51.032;3.712;2023-01-08T01:07:11;6.1;;;1.4;;
74457;SDS011;62896;51.032;3.712;2023-01-08T01:10:31;6.1;;;1.4;;
74457;SDS011;62896;51.032;3.712;2023-01-08T01:13:52;6.1;;;1.4;;
74457;SDS011;62896;51.032;3.712;2023-01-08T01:17:11;6.7;;;1.3;;
74457;SDS011;62896;51.032;3.712;2023-01-08T01:20:31;6.7;;;1.3;;
74457;SDS011;62896;51.032;3.712;2023-01-08T01:23:52;6.7;;;1.3;;
74457;SDS011;62896;51.032;3.712;2023-01-08T01:27:11;6.7;;;1.3;;
74457;SDS011;62896;51.032;3.712;2023-01-08T01:30:31;6.7;;;1.3;;
74457;SDS011;62896;51.032;3.712;2023-01-08T01:33:52;6.7;;;1.3;;
74457;SDS011;62896;51.032;3.712;2023-01-08T01:37:12;6.7;;;1.3;;
74457;SDS011;62896;51.032;3.712;2023-01-08T01:40:31;6.7;;;1.3;;
74457;SDS011;62896;51.032;3.712;2023-01-08T01:43:52;8.7;;;1;;
74457;SDS011;62896;51.032;3.712;2023-01-08T01:47:14;8.7;;;1;;
74457;SDS011;62896;51.032;3.712;2023-01-08T01:50:32;8.7;;;1;;
74457;SDS011;62896;51.032;3.712;2023-01-08T01:53:51;8.7;;;1;;
74457;SDS011;62896;51.032;3.712;2023-01-08T01:57:11;8.7;;;1;;
74457;SDS011;62896;51.032;3.712;2023-01-08T02:00:32;8.7;;;1;;
74457;SDS011;62896;51.032;3.712;2023-01-08T02:03:51;8.7;;;1;;
74457;SDS011;62896;51.032;3.712;2023-01-08T02:07:12;4.3;;;0.9;;
74457;SDS011;62896;51.032;3.712;2023-01-08T02:10:34;4.3;;;0.9;;
74457;SDS011;62896;51.032;3.712;2023-01-08T02:13:54;4.3;;;0.9;;
74457;SDS011;62896;51.032;3.712;2023-01-08T02:17:13;4.3;;;0.9;;
74457;SDS011;62896;51.032;3.712;2023-01-08T02:20:34;4.3;;;0.9;;
74457;SDS011;62896;51.032;3.712;2023-01-08T02:23:52;4.3;;;0.9;;
74457;SDS011;62896;51.032;3.712;2023-01-08T02:27:12;4.3;;;0.9;;
74457;SDS011;62896;51.032;3.712;2023-01-08T02:30:31;4.3;;;0.9;;
74457;SDS011;62896;51.032;3.712;2023-01-08T02:33:51;4.4;;;1.1;;
74457;SDS011;62896;51.032;3.712;2023-01-08T02:37:11;4.4;;;1.1;;
74457;SDS011;62896;51.032;3.712;2023-01-08T02:40:32;4.4;;;1.1;;
74457;SDS011;62896;51.032;3.712;2023-01-08T02:43:51;4.4;;;1.1;;
74457;SDS011;62896;51.032;3.712;2023-01-08T02:47:14;4.4;;;1.1;;
74457;SDS011;62896;51.032;3.712;2023-01-08T02:50:33;4.4;;;1.1;;
74457;SDS011;62896;51.032;3.712;2023-01-08T02:53:53;4.4;;;1.1;;
74457;SDS011;62896;51.032;3.712;2023-01-08T02:57:12;10.8;;;1.6;;
74457;SDS011;62896;51.032;3.712;2023-01-08T03:00:32;10.8;;;1.6;;
74457;SDS011;62896;51.032;3.712;2023-01-08T03:03:53;10.8;;;1.6;;
74457;SDS011;62896;51.032;3.712;2023-01-08T03:07:11;10.8;;;1.6;;
74457;SDS011;62896;51.032;3.712;2023-01-08T03:10:32;10.8;;;1.6;;
74457;SDS011;62896;51.032;3.712;2023-01-08T03:13:53;10.8;;;1.6;;
74457;SDS011;62896;51.032;3.712;2023-01-08T03:17:13;10.8;;;1.6;;
74457;SDS011;62896;51.032;3.712;2023-01-08T03:20:31;10.8;;;1.6;;
74457;SDS011;62896;51.032;3.712;2023-01-08T03:23:52;5.2;;;1.2;;
74457;SDS011;62896;51.032;3.712;2023-01-08T03:27:12;5.2;;;1.2;;
74457;SDS011;62896;51.032;3.712;2023-01-08T03:30:31;5.2;;;1.2;;
74457;SDS011;62896;51.032;3.712;2023-01-08T03:33:52;5.2;;;1.2;;
74457;SDS011;62896;51.032;3.712;2023-01-08T03:37:12;5.2;;;1.2;;
74457;SDS011;62896;51.032;3.712;2023-01-08T03:40:33;5.2;;;1.2;;
74457;SDS011;62896;51.032;3.712;2023-01-08T03:43:51;5.2;;;1.2;;
74457;SDS011;62896;51.032;3.712;2023-01-08T03:47:12;5.4;;;1.3;;
74457;SDS011;62896;51.032;3.712;2023-01-08T03:50:32;5.4;;;1.3;;
74457;SDS011;62896;51.032;3.712;2023-01-08T03:53:53;5.4;;;1.3;;
74457;SDS011;62896;51.032;3.712;2023-01-08T03:57:12;5.4;;;1.3;;
74457;SDS011;62896;51.032;3.712;2023-01-08T04:00:32;5.4;;;1.3;;
74457;SDS011;62896;51.032;3.712;2023-01-08T04:03:52;5.4;;;1.3;;
74457;SDS011;62896;51.032;3.712;2023-01-08T04:07:12;5.4;;;1.3;;
74457;SDS011;62896;51.032;3.712;2023-01-08T04:10:32;5.4;;;1.3;;
74457;SDS011;62896;51.032;3.712;2023-01-08T04:13:52;8.9;;;1.7;;
74457;SDS011;62896;51.032;3.712;2023-01-08T04:17:12;8.9;;;1.7;;
74457;SDS011;62896;51.032;3.712;2023-01-08T04:20:32;8.9;;;1.7;;
74457;SDS011;62896;51.032;3.712;2023-01-08T04:23:52;8.9;;;1.7;;
74457;SDS011;62896;51.032;3.712;2023-01-08T04:27:12;8.9;;;1.7;;
74457;SDS011;62896;51.032;3.712;2023-01-08T04:30:32;8.9;;;1.7;;
74457;SDS011;62896;51.032;3.712;2023-01-08T04:33:52;8.9;;;1.7;;
74457;SDS011;62896;51.032;3.712;2023-01-08T04:37:12;6.6;;;1;;
74457;SDS011;62896;51.032;3.712;2023-01-08T04:40:32;6.6;;;1;;
74457;SDS011;62896;51.032;3.712;2023-01-08T04:43:52;6.6;;;1;;
74457;SDS011;62896;51.032;3.712;2023-01-08T04:47:12;6.6;;;1;;
74457;SDS011;62896;51.032;3.712;2023-01-08T04:50:32;6.6;;;1;;
74457;SDS011;62896;51.032;3.712;2023-01-08T04:53:52;6.6;;;1;;
74457;SDS011;62896;51.032;3.712;2023-01-08T04:57:12;6.6;;;1;;
74457;SDS011;62896;51.032;3.712;2023-01-08T05:00:32;6.6;;;1;;
74457;SDS011;62896;51.032;3.712;2023-01-08T05:03:52;7.3;;;1.1;;
74457;SDS011;62896;51.032;3.712;2023-01-08T05:07:12;7.3;;;1.1;;
74457;SDS011;62896;51.032;3.712;2023-01-08T05:10:32;7.3;;;1.1;;
74457;SDS011;62896;51.032;3.712;2023-01-08T05:13:52;7.3;;;1.1;;
74457;SDS011;62896;51.032;3.712;2023-01-08T05:17:12;7.3;;;1.1;;
74457;SDS011;62896;51.032;3.712;2023-01-08T05:20:32;7.3;;;1.1;;
74457;SDS011;62896;51.032;3.712;2023-01-08T05:23:52;7.3;;;1.1;;
74457;SDS011;62896;51.032;3.712;2023-01-08T05:27:12;8.9;;;1.3;;
74457;SDS011;62896;51.032;3.712;2023-01-08T05:30:32;8.9;;;1.3;;
74457;SDS011;62896;51.032;3.712;2023-01-08T05:33:52;8.9;;;1.3;;
74457;SDS011;62896;51.032;3.712;2023-01-08T05:37:12;8.9;;;1.3;;
74457;SDS011;62896;51.032;3.712;2023-01-08T05:40:32;8.9;;;1.3;;
74457;SDS011;62896;51.032;3.712;2023-01-08T05:43:52;8.9;;;1.3;;
74457;SDS011;62896;51.032;3.712;2023-01-08T05:47:12;8.9;;;1.3;;
74457;SDS011;62896;51.032;3.712;2023-01-08T05:50:32;8.9;;;1.3;;
74457;SDS011;62896;51.032;3.712;2023-01-08T05:53:52;14.2;;;1.6;;
74457;SDS011;62896;51.032;3.712;2023-01-08T05:57:12;14.2;;;1.6;;
74457;SDS011;62896;51.032;3.712;2023-01-08T06:00:32;14.2;;;1.6;;
74457;SDS011;62896;51.032;3.712;2023-01-08T06:03:53;14.2;;;1.6;;
74457;SDS011;62896;51.032;3.712;2023-01-08T06:07:12;14.2;;;1.6;;
74457;SDS011;62896;51.032;3.712;2023-01-08T06:10:32;14.2;;;1.6;;
74457;SDS011;62896;51.032;3.712;2023-01-08T06:13:52;14.2;;;1.6;;
74457;SDS011;62896;51.032;3.712;2023-01-08T06:17:12;9.2;;;1.5;;
74457;SDS011;62896;51.032;3.712;2023-01-08T06:20:32;9.2;;;1.5;;
74457;SDS011;62896;51.032;3.712;2023-01-08T06:23:52;9.2;;;1.5;;
74457;SDS011;62896;51.032;3.712;2023-01-08T06:27:12;9.2;;;1.5;;
74457;SDS011;62896;51.032;3.712;2023-01-08T06:30:32;9.2;;;1.5;;
74457;SDS011;62896;51.032;3.712;2023-01-08T06:33:52;9.2;;;1.5;;
74457;SDS011;62896;51.032;3.712;2023-01-08T06:37:12;9.2;;;1.5;;
74457;SDS011;62896;51.032;3.712;2023-01-08T06:40:32;9.2;;;1.5;;
74457;SDS011;62896;51.032;3.712;2023-01-08T06:43:52;9.6;;;1.5;;
74457;SDS011;62896;51.032;3.712;2023-01-08T06:47:12;9.6;;;1.5;;
74457;SDS011;62896;51.032;3.712;2023-01-08T06:50:32;9.6;;;1.5;;
74457;SDS011;62896;51.032;3.712;2023-01-08T06:53:52;9.6;;;1.5;;
74457;SDS011;62896;51.032;3.712;2023-01-08T06:57:12;9.6;;;1.5;;
74457;SDS011;62896;51.032;3.712;2023-01-08T07:00:32;9.6;;;1.5;;
74457;SDS011;62896;51.032;3.712;2023-01-08T07:03:52;9.6;;;1.5;;
74457;SDS011;62896;51.032;3.712;2023-01-08T07:07:12;11.1;;;2.1;;
74457;SDS011;62896;51.032;3.712;2023-01-08T07:10:33;11.1;;;2.1;;
74457;SDS011;62896;51.032;3.712;2023-01-08T07:13:52;11.1;;;2.1;;
74457;SDS011;62896;51.032;3.712;2023-01-08T07:17:12;11.1;;;2.1;;
74457;SDS011;62896;51.032;3.712;2023-01-08T07:20:32;11.1;;;2.1;;
74457;SDS011;62896;51.032;3.712;2023-01-08T07:23:52;11.1;;;2.1;;
74457;SDS011;62896;51.032;3.712;2023-01-08T07:27:12;11.1;;;2.1;;
74457;SDS011;62896;51.032;3.712;2023-01-08T07:30:32;11.1;;;2.1;;
74457;SDS011;62896;51.032;3.712;2023-01-08T07:33:52;10.8;;;1.7;;
74457;SDS011;62896;51.032;3.712;2023-01-08T07:37:12;10.8;;;1.7;;
74457;SDS011;62896;51.032;3.712;2023-01-08T07:40:32;10.8;;;1.7;;
74457;SDS011;62896;51.032;3.712;2023-01-08T07:43:52;10.8;;;1.7;;
74457;SDS011;62896;51.032;3.712;2023-01-08T07:47:12;10.8;;;1.7;;
74457;SDS011;62896;51.032;3.712;2023-01-08T07:50:32;10.8;;;1.7;;
74457;SDS011;62896;51.032;3.712;2023-01-08T07:53:52;10.8;;;1.7;;
74457;SDS011;62896;51.032;3.712;2023-01-08T07:57:12;14.1;;;2.1;;
74457;SDS011;62896;51.032;3.712;2023-01-08T08:00:32;14.1;;;2.1;;
74457;SDS011;62896;51.032;3.712;2023-01-08T08:03:52;14.1;;;2.1;;
74457;SDS011;62896;51.032;3.712;2023-01-08T08:07:12;14.1;;;2.1;;
74457;SDS011;62896;51.032;3.712;2023-01-08T08:10:32;14.1;;;2.1;;
74457;SDS011;62896;51.032;3.712;2023-01-08T08:13:52;14.1;;;2.1;;
74457;SDS011;62896;51.032;3.712;2023-01-08T08:17:12;14.1;;;2.1;;
74457;SDS011;62896;51.032;3.712;2023-01-08T08:20:32;14.1;;;2.1;;
74457;SDS011;62896;51.032;3.712;2023-01-08T08:23:52;12.2;;;1.7;;
74457;SDS011;62896;51.032;3.712;2023-01-08T08:27:12;12.2;;;1.7;;
74457;SDS011;62896;51.032;3.712;2023-01-08T08:30:33;12.2;;;1.7;;
74457;SDS011;62896;51.032;3.712;2023-01-08T08:33:52;12.2;;;1.7;;
74457;SDS011;62896;51.032;3.712;2023-01-08T08:37:12;12.2;;;1.7;;
74457;SDS011;62896;51.032;3.712;2023-01-08T08:40:32;12.2;;;1.7;;
74457;SDS011;62896;51.032;3.712;2023-01-08T08:43:52;12.2;;;1.7;;
74457;SDS011;62896;51.032;3.712;2023-01-08T08:47:12;9.8;;;1.9;;
74457;SDS011;62896;51.032;3.712;2023-01-08T08:50:32;9.8;;;1.9;;
74457;SDS011;62896;51.032;3.712;2023-01-08T08:53:52;9.8;;;1.9;;
74457;SDS011;62896;51.032;3.712;2023-01-08T08:57:12;9.8;;;1.9;;
74457;SDS011;62896;51.032;3.712;2023-01-08T09:00:32;9.8;;;1.9;;
74457;SDS011;62896;51.032;3.712;2023-01-08T09:03:52;9.8;;;1.9;;
74457;SDS011;62896;51.032;3.712;2023-01-08T09:07:12;9.8;;;1.9;;
74457;SDS011;62896;51.032;3.712;2023-01-08T09:10:32;9.8;;;1.9;;
74457;SDS011;62896;51.032;3.712;2023-01-08T09:13:52;7.8;;;1.4;;
74457;SDS011;62896;51.032;3.712;2023-01-08T09:17:12;7.8;;;1.4;;
74457;SDS011;62896;51.032;3.712;2023-01-08T09:20:32;7.8;;;1.4;;
74457;SDS011;62896;51.032;3.712;2023-01-08T09:23:52;7.8;;;1.4;;
74457;SDS011;62896;51.032;3.712;2023-01-08T09:27:12;7.8;;;1.4;;
74457;SDS011;62896;51.032;3.712;2023-01-08T09:30:32;7.8;;;1.4;;
74457;SDS011;62896;51.032;3.712;2023-01-08T09:33:52;7.8;;;1.4;;
74457;SDS011;62896;51.032;3.712;2023-01-08T09:37:12;4;;;1.3;;
74457;SDS011;62896;51.032;3.712;2023-01-08T09:40:34;4;;;1.3;;
74457;SDS011;62896;51.032;3.712;2023-01-08T09:43:52;4;;;1.3;;
74457;SDS011;62896;51.032;3.712;2023-01-08T09:47:16;4;;;1.3;;
74457;SDS011;62896;51.032;3.712;2023-01-08T09:50:32;4;;;1.3;;
74457;SDS011;62896;51.032;3.712;2023-01-08T09:53:52;4;;;1.3;;
74457;SDS011;62896;51.032;3.712;2023-01-08T09:57:12;4;;;1.3;;
74457;SDS011;62896;51.032;3.712;2023-01-08T10:00:32;4;;;1.3;;
74457;SDS011;62896;51.032;3.712;2023-01-08T10:04:02;3.4;;;0.8;;
74457;SDS011;62896;51.032;3.712;2023-01-08T10:07:13;3.4;;;0.8;;
74457;SDS011;62896;51.032;3.712;2023-01-08T10:10:32;3.4;;;0.8;;
74457;SDS011;62896;51.032;3.712;2023-01-08T10:13:53;3.4;;;0.8;;
74457;SDS011;62896;51.032;3.712;2023-01-08T10:17:14;3.4;;;0.8;;
74457;SDS011;62896;51.032;3.712;2023-01-08T10:20:32;3.4;;;0.8;;
74457;SDS011;62896;51.032;3.712;2023-01-08T10:23:52;3.4;;;0.8;;
74457;SDS011;62896;51.032;3.712;2023-01-08T10:27:13;4.4;;;1;;
74457;SDS011;62896;51.032;3.712;2023-01-08T10:30:33;4.4;;;1;;
74457;SDS011;62896;51.032;3.712;2023-01-08T10:33:52;4.4;;;1;;
74457;SDS011;62896;51.032;3.712;2023-01-08T10:37:14;4.4;;;1;;
74457;SDS011;62896;51.032;3.712;2023-01-08T10:40:33;4.4;;;1;;
74457;SDS011;62896;51.032;3.712;2023-01-08T10:43:53;4.4;;;1;;
74457;SDS011;62896;51.032;3.712;2023-01-08T10:47:12;4.4;;;1;;
74457;SDS011;62896;51.032;3.712;2023-01-08T10:50:32;4.4;;;1;;
74457;SDS011;62896;51.032;3.712;2023-01-08T10:53:53;6.2;;;1.6;;
74457;SDS011;62896;51.032;3.712;2023-01-08T10:57:18;6.2;;;1.6;;
74457;SDS011;62896;51.032;3.712;2023-01-08T11:00:33;6.2;;;1.6;;
74457;SDS011;62896;51.032;3.712;2023-01-08T11:03:53;6.2;;;1.6;;
74457;SDS011;62896;51.032;3.712;2023-01-08T11:07:14;6.2;;;1.6;;
74457;SDS011;62896;51.032;3.712;2023-01-08T11:10:32;6.2;;;1.6;;
74457;SDS011;62896;51.032;3.712;2023-01-08T11:13:54;6.2;;;1.6;;
74457;SDS011;62896;51.032;3.712;2023-01-08T11:17:12;5.7;;;1.1;;
74457;SDS011;62896;51.032;3.712;2023-01-08T11:20:32;5.7;;;1.1;;
74457;SDS011;62896;51.032;3.712;2023-01-08T11:24:00;5.7;;;1.1;;
74457;SDS011;62896;51.032;3.712;2023-01-08T11:27:14;5.7;;;1.1;;
74457;SDS011;62896;51.032;3.712;2023-01-08T11:30:32;5.7;;;1.1;;
74457;SDS011;62896;51.032;3.712;2023-01-08T11:33:53;5.7;;;1.1;;
74457;SDS011;62896;51.032;3.712;2023-01-08T11:37:13;5.7;;;1.1;;
74457;SDS011;62896;51.032;3.712;2023-01-08T11:40:34;5.7;;;1.1;;
74457;SDS011;62896;51.032;3.712;2023-01-08T11:43:57;5.6;;;1.3;;
74457;SDS011;62896;51.032;3.712;2023-01-08T11:47:13;5.6;;;1.3;;
74457;SDS011;62896;51.032;3.712;2023-01-08T11:50:33;5.6;;;1.3;;
74457;SDS011;62896;51.032;3.712;2023-01-08T11:53:54;5.6;;;1.3;;
74457;SDS011;62896;51.032;3.712;2023-01-08T11:57:16;5.6;;;1.3;;
74457;SDS011;62896;51.032;3.712;2023-01-08T12:00:37;5.6;;;1.3;;
74457;SDS011;62896;51.032;3.712;2023-01-08T12:03:53;5.6;;;1.3;;
74457;SDS011;62896;51.032;3.712;2023-01-08T12:07:13;6.6;;;1.6;;
74457;SDS011;62896;51.032;3.712;2023-01-08T12:10:38;6.6;;;1.6;;
74457;SDS011;62896;51.032;3.712;2023-01-08T12:14:05;6.6;;;1.6;;
74457;SDS011;62896;51.032;3.712;2023-01-08T12:17:18;6.6;;;1.6;;
74457;SDS011;62896;51.032;3.712;2023-01-08T12:20:34;6.6;;;1.6;;
74457;SDS011;62896;51.032;3.712;2023-01-08T12:23:56;6.6;;;1.6;;
74457;SDS011;62896;51.032;3.712;2023-01-08T12:27:14;6.6;;;1.6;;
74457;SDS011;62896;51.032;3.712;2023-01-08T12:30:35;6.6;;;1.6;;
74457;SDS011;62896;51.032;3.712;2023-01-08T12:33:52;8.3;;;1.2;;
74457;SDS011;62896;51.032;3.712;2023-01-08T12:37:13;8.3;;;1.2;;
74457;SDS011;62896;51.032;3.712;2023-01-08T12:40:32;8.3;;;1.2;;
74457;SDS011;62896;51.032;3.712;2023-01-08T12:43:53;8.3;;;1.2;;
74457;SDS011;62896;51.032;3.712;2023-01-08T12:47:12;8.3;;;1.2;;
74457;SDS011;62896;51.032;3.712;2023-01-08T12:50:35;8.3;;;1.2;;
74457;SDS011;62896;51.032;3.712;2023-01-08T12:53:53;8.3;;;1.2;;
74457;SDS011;62896;51.032;3.712;2023-01-08T12:57:13;7.4;;;1.5;;
74457;SDS011;62896;51.032;3.712;2023-01-08T13:23:57;7.5;;;1.6;;
74457;SDS011;62896;51.032;3.712;2023-01-08T13:27:24;7.5;;;1.6;;
74457;SDS011;62896;51.032;3.712;2023-01-08T13:47:15;12;;;1.5;;
74457;SDS011;62896;51.032;3.712;2023-01-08T13:50:32;12;;;1.5;;
74457;SDS011;62896;51.032;3.712;2023-01-08T13:53:52;12;;;1.5;;
74457;SDS011;62896;51.032;3.712;2023-01-08T13:57:13;12;;;1.5;;
74457;SDS011;62896;51.032;3.712;2023-01-08T14:00:34;12;;;1.5;;
74457;SDS011;62896;51.032;3.712;2023-01-08T14:03:52;12;;;1.5;;
74457;SDS011;62896;51.032;3.712;2023-01-08T14:07:12;12;;;1.5;;
74457;SDS011;62896;51.032;3.712;2023-01-08T14:10:34;12;;;1.5;;
74457;SDS011;62896;51.032;3.712;2023-01-08T14:13:52;8.8;;;1.5;;
74457;SDS011;62896;51.032;3.712;2023-01-08T14:17:12;8.8;;;1.5;;
74457;SDS011;62896;51.032;3.712;2023-01-08T14:20:33;8.8;;;1.5;;
74457;SDS011;62896;51.032;3.712;2023-01-08T14:23:52;8.8;;;1.5;;
74457;SDS011;62896;51.032;3.712;2023-01-08T14:27:20;8.8;;;1.5;;
74457;SDS011;62896;51.032;3.712;2023-01-08T14:30:32;8.8;;;1.5;;
74457;SDS011;62896;51.032;3.712;2023-01-08T14:33:52;8.8;;;1.5;;
74457;SDS011;62896;51.032;3.712;2023-01-08T14:37:12;7.6;;;1.4;;
74457;SDS011;62896;51.032;3.712;2023-01-08T14:40:33;7.6;;;1.4;;
74457;SDS011;62896;51.032;3.712;2023-01-08T14:43:52;7.6;;;1.4;;
74457;SDS011;62896;51.032;3.712;2023-01-08T14:47:13;7.6;;;1.4;;
74457;SDS011;62896;51.032;3.712;2023-01-08T14:50:32;7.6;;;1.4;;
74457;SDS011;62896;51.032;3.712;2023-01-08T14:53:52;7.6;;;1.4;;
74457;SDS011;62896;51.032;3.712;2023-01-08T14:57:12;7.6;;;1.4;;
74457;SDS011;62896;51.032;3.712;2023-01-08T15:00:32;7.6;;;1.4;;
74457;SDS011;62896;51.032;3.712;2023-01-08T15:04:03;6;;;1.3;;
74457;SDS011;62896;51.032;3.712;2023-01-08T15:07:16;6;;;1.3;;
74457;SDS011;62896;51.032;3.712;2023-01-08T15:10:33;6;;;1.3;;
74457;SDS011;62896;51.032;3.712;2023-01-08T15:13:52;6;;;1.3;;
74457;SDS011;62896;51.032;3.712;2023-01-08T15:17:14;6;;;1.3;;
74457;SDS011;62896;51.032;3.712;2023-01-08T15:20:32;6;;;1.3;;
74457;SDS011;62896;51.032;3.712;2023-01-08T15:23:52;6;;;1.3;;
74457;SDS011;62896;51.032;3.712;2023-01-08T15:27:16;10.6;;;1.8;;
74457;SDS011;62896;51.032;3.712;2023-01-08T15:30:33;10.6;;;1.8;;
74457;SDS011;62896;51.032;3.712;2023-01-08T15:33:52;10.6;;;1.8;;
74457;SDS011;62896;51.032;3.712;2023-01-08T15:37:12;10.6;;;1.8;;
74457;SDS011;62896;51.032;3.712;2023-01-08T15:40:32;10.6;;;1.8;;
74457;SDS011;62896;51.032;3.712;2023-01-08T15:43:52;10.6;;;1.8;;
74457;SDS011;62896;51.032;3.712;2023-01-08T15:47:12;10.6;;;1.8;;
74457;SDS011;62896;51.032;3.712;2023-01-08T15:50:32;10.6;;;1.8;;
74457;SDS011;62896;51.032;3.712;2023-01-08T15:53:52;7.9;;;1.4;;
74457;SDS011;62896;51.032;3.712;2023-01-08T15:57:12;7.9;;;1.4;;
74457;SDS011;62896;51.032;3.712;2023-01-08T16:00:32;7.9;;;1.4;;
74457;SDS011;62896;51.032;3.712;2023-01-08T16:03:52;7.9;;;1.4;;
74457;SDS011;62896;51.032;3.712;2023-01-08T16:07:12;7.9;;;1.4;;
74457;SDS011;62896;51.032;3.712;2023-01-08T16:10:32;7.9;;;1.4;;
74457;SDS011;62896;51.032;3.712;2023-01-08T16:13:52;7.9;;;1.4;;
74457;SDS011;62896;51.032;3.712;2023-01-08T16:17:12;8.9;;;1.4;;
74457;SDS011;62896;51.032;3.712;2023-01-08T16:20:32;8.9;;;1.4;;
74457;SDS011;62896;51.032;3.712;2023-01-08T16:23:52;8.9;;;1.4;;
74457;SDS011;62896;51.032;3.712;2023-01-08T16:27:12;8.9;;;1.4;;
74457;SDS011;62896;51.032;3.712;2023-01-08T16:30:32;8.9;;;1.4;;
74457;SDS011;62896;51.032;3.712;2023-01-08T16:33:52;8.9;;;1.4;;
74457;SDS011;62896;51.032;3.712;2023-01-08T16:37:12;8.9;;;1.4;;
74457;SDS011;62896;51.032;3.712;2023-01-08T16:40:32;8.9;;;1.4;;
74457;SDS011;62896;51.032;3.712;2023-01-08T16:43:52;9.3;;;1.6;;
74457;SDS011;62896;51.032;3.712;2023-01-08T16:47:12;9.3;;;1.6;;
74457;SDS011;62896;51.032;3.712;2023-01-08T16:50:32;9.3;;;1.6;;
74457;SDS011;62896;51.032;3.712;2023-01-08T16:53:52;9.3;;;1.6;;
74457;SDS011;62896;51.032;3.712;2023-01-08T16:57:12;9.3;;;1.6;;
74457;SDS011;62896;51.032;3.712;2023-01-08T17:00:32;9.3;;;1.6;;
74457;SDS011;62896;51.032;3.712;2023-01-08T17:03:52;9.3;;;1.6;;
74457;SDS011;62896;51.032;3.712;2023-01-08T17:07:12;10.7;;;1.5;;
74457;SDS011;62896;51.032;3.712;2023-01-08T17:10:32;10.7;;;1.5;;
74457;SDS011;62896;51.032;3.712;2023-01-08T17:13:52;10.7;;;1.5;;
74457;SDS011;62896;51.032;3.712;2023-01-08T17:17:12;10.7;;;1.5;;
74457;SDS011;62896;51.032;3.712;2023-01-08T17:20:32;10.7;;;1.5;;
74457;SDS011;62896;51.032;3.712;2023-01-08T17:23:52;10.7;;;1.5;;
74457;SDS011;62896;51.032;3.712;2023-01-08T17:27:12;10.7;;;1.5;;
74457;SDS011;62896;51.032;3.712;2023-01-08T17:30:32;10.7;;;1.5;;
74457;SDS011;62896;51.032;3.712;2023-01-08T17:33:52;6.7;;;1.6;;
74457;SDS011;62896;51.032;3.712;2023-01-08T17:37:12;6.7;;;1.6;;
74457;SDS011;62896;51.032;3.712;2023-01-08T17:40:32;6.7;;;1.6;;
74457;SDS011;62896;51.032;3.712;2023-01-08T17:43:52;6.7;;;1.6;;
74457;SDS011;62896;51.032;3.712;2023-01-08T17:47:12;6.7;;;1.6;;
74457;SDS011;62896;51.032;3.712;2023-01-08T17:50:32;6.7;;;1.6;;
74457;SDS011;62896;51.032;3.712;2023-01-08T17:53:52;6.7;;;1.6;;
74457;SDS011;62896;51.032;3.712;2023-01-08T17:57:12;6.9;;;1.7;;
74457;SDS011;62896;51.032;3.712;2023-01-08T18:00:32;6.9;;;1.7;;
74457;SDS011;62896;51.032;3.712;2023-01-08T18:03:52;6.9;;;1.7;;
74457;SDS011;62896;51.032;3.712;2023-01-08T18:07:12;6.9;;;1.7;;
74457;SDS011;62896;51.032;3.712;2023-01-08T18:10:32;6.9;;;1.7;;
74457;SDS011;62896;51.032;3.712;2023-01-08T18:13:53;6.9;;;1.7;;
74457;SDS011;62896;51.032;3.712;2023-01-08T18:17:12;6.9;;;1.7;;
74457;SDS011;62896;51.032;3.712;2023-01-08T18:20:32;6.9;;;1.7;;
74457;SDS011;62896;51.032;3.712;2023-01-08T18:23:52;7.7;;;1.4;;
74457;SDS011;62896;51.032;3.712;2023-01-08T18:27:12;7.7;;;1.4;;
74457;SDS011;62896;51.032;3.712;2023-01-08T18:30:32;7.7;;;1.4;;
74457;SDS011;62896;51.032;3.712;2023-01-08T18:33:52;7.7;;;1.4;;
74457;SDS011;62896;51.032;3.712;2023-01-08T18:37:12;7.7;;;1.4;;
74457;SDS011;62896;51.032;3.712;2023-01-08T18:40:32;7.7;;;1.4;;
74457;SDS011;62896;51.032;3.712;2023-01-08T18:43:52;7.7;;;1.4;;
74457;SDS011;62896;51.032;3.712;2023-01-08T18:47:12;7.9;;;1.7;;
74457;SDS011;62896;51.032;3.712;2023-01-08T18:50:32;7.9;;;1.7;;
74457;SDS011;62896;51.032;3.712;2023-01-08T18:53:52;7.9;;;1.7;;
74457;SDS011;62896;51.032;3.712;2023-01-08T18:57:12;7.9;;;1.7;;
74457;SDS011;62896;51.032;3.712;2023-01-08T19:00:32;7.9;;;1.7;;
74457;SDS011;62896;51.032;3.712;2023-01-08T19:03:52;7.9;;;1.7;;
74457;SDS011;62896;51.032;3.712;2023-01-08T19:07:12;7.9;;;1.7;;
74457;SDS011;62896;51.032;3.712;2023-01-08T19:10:33;7.9;;;1.7;;
74457;SDS011;62896;51.032;3.712;2023-01-08T19:13:53;4.4;;;1.3;;
74457;SDS011;62896;51.032;3.712;2023-01-08T19:17:12;4.4;;;1.3;;
74457;SDS011;62896;51.032;3.712;2023-01-08T19:20:32;4.4;;;1.3;;
74457;SDS011;62896;51.032;3.712;2023-01-08T19:23:52;4.4;;;1.3;;
74457;SDS011;62896;51.032;3.712;2023-01-08T19:27:12;4.4;;;1.3;;
74457;SDS011;62896;51.032;3.712;2023-01-08T19:30:32;4.4;;;1.3;;
74457;SDS011;62896;51.032;3.712;2023-01-08T19:33:52;4.4;;;1.3;;
74457;SDS011;62896;51.032;3.712;2023-01-08T19:37:12;8.3;;;1.7;;
74457;SDS011;62896;51.032;3.712;2023-01-08T19:40:32;8.3;;;1.7;;
74457;SDS011;62896;51.032;3.712;2023-01-08T19:43:52;8.3;;;1.7;;
74457;SDS011;62896;51.032;3.712;2023-01-08T19:47:12;8.3;;;1.7;;
74457;SDS011;62896;51.032;3.712;2023-01-08T19:50:32;8.3;;;1.7;;
74457;SDS011;62896;51.032;3.712;2023-01-08T19:53:52;8.3;;;1.7;;
74457;SDS011;62896;51.032;3.712;2023-01-08T19:57:12;8.3;;;1.7;;
74457;SDS011;62896;51.032;3.712;2023-01-08T20:00:32;8.3;;;1.7;;
74457;SDS011;62896;51.032;3.712;2023-01-08T20:03:53;10.6;;;1.6;;
74457;SDS011;62896;51.032;3.712;2023-01-08T20:07:12;10.6;;;1.6;;
74457;SDS011;62896;51.032;3.712;2023-01-08T20:10:32;10.6;;;1.6;;
74457;SDS011;62896;51.032;3.712;2023-01-08T20:13:52;10.6;;;1.6;;
74457;SDS011;62896;51.032;3.712;2023-01-08T20:17:12;10.6;;;1.6;;
74457;SDS011;62896;51.032;3.712;2023-01-08T20:20:32;10.6;;;1.6;;
74457;SDS011;62896;51.032;3.712;2023-01-08T20:23:53;10.6;;;1.6;;
74457;SDS011;62896;51.032;3.712;2023-01-08T20:27:12;3.4;;;0.8;;
74457;SDS011;62896;51.032;3.712;2023-01-08T20:30:32;3.4;;;0.8;;
74457;SDS011;62896;51.032;3.712;2023-01-08T20:33:52;3.4;;;0.8;;
74457;SDS011;62896;51.032;3.712;2023-01-08T20:37:12;3.4;;;0.8;;
74457;SDS011;62896;51.032;3.712;2023-01-08T20:40:34;3.4;;;0.8;;
74457;SDS011;62896;51.032;3.712;2023-01-08T20:43:53;3.4;;;0.8;;
74457;SDS011;62896;51.032;3.712;2023-01-08T20:47:13;3.4;;;0.8;;
74457;SDS011;62896;51.032;3.712;2023-01-08T20:50:32;3.4;;;0.8;;
74457;SDS011;62896;51.032;3.712;2023-01-08T20:53:52;1.8;;;0.5;;
74457;SDS011;62896;51.032;3.712;2023-01-08T20:57:12;1.8;;;0.5;;
74457;SDS011;62896;51.032;3.712;2023-01-08T21:00:32;1.8;;;0.5;;
74457;SDS011;62896;51.032;3.712;2023-01-08T21:03:53;1.8;;;0.5;;
74457;SDS011;62896;51.032;3.712;2023-01-08T21:07:12;1.8;;;0.5;;
74457;SDS011;62896;51.032;3.712;2023-01-08T21:10:32;1.8;;;0.5;;
74457;SDS011;62896;51.032;3.712;2023-01-08T21:13:53;1.8;;;0.5;;
74457;SDS011;62896;51.032;3.712;2023-01-08T21:17:12;2.1;;;1;;
74457;SDS011;62896;51.032;3.712;2023-01-08T21:20:32;2.1;;;1;;
74457;SDS011;62896;51.032;3.712;2023-01-08T21:23:52;2.1;;;1;;